sensor_id;sensor_type;location;lat;lon;timestamp;P1;durP1;ratioP1;P2;durP2;ratioP2
1649;SDS011;822;53.670;8.676;2023-04-28T00:02:21;3.13;;;1.67;;
1649;SDS011;822;53.670;8.676;2023-04-28T00:04:48;2.60;;;2.40;;
1649;SDS011;822;53.670;8.676;2023-04-28T00:07:15;2.27;;;2.07;;
1649;SDS011;822;53.670;8.676;2023-04-28T00:09:44;3.10;;;2.50;;
1649;SDS011;822;53.670;8.676;2023-04-28T00:12:11;2.43;;;2.10;;
1649;SDS011;822;53.670;8.676;2023-04-28T00:14:38;7.40;;;2.90;;
1649;SDS011;822;53.670;8.676;2023-04-28T00:17:05;5.07;;;2.30;;
1649;SDS011;822;53.670;8.676;2023-04-28T00:19:34;3.13;;;2.93;;
1649;SDS011;822;53.670;8.676;2023-04-28T00:22:02;5.90;;;3.03;;
1649;SDS011;822;53.670;8.676;2023-04-28T00:24:30;1.83;;;1.60;;
1649;SDS011;822;53.670;8.676;2023-04-28T00:26:59;5.00;;;2.17;;
1649;SDS011;822;53.670;8.676;2023-04-28T00:29:27;3.37;;;2.53;;
1649;SDS011;822;53.670;8.676;2023-04-28T00:31:54;2.63;;;2.43;;
1649;SDS011;822;53.670;8.676;2023-04-28T00:34:24;2.73;;;2.30;;
1649;SDS011;822;53.670;8.676;2023-04-28T00:36:52;3.67;;;2.57;;
1649;SDS011;822;53.670;8.676;2023-04-28T00:39:22;2.00;;;1.90;;
1649;SDS011;822;53.670;8.676;2023-04-28T00:41:50;4.23;;;3.77;;
1649;SDS011;822;53.670;8.676;2023-04-28T00:44:19;2.10;;;1.83;;
1649;SDS011;822;53.670;8.676;2023-04-28T00:46:46;3.17;;;1.83;;
1649;SDS011;822;53.670;8.676;2023-04-28T00:49:13;6.10;;;2.60;;
1649;SDS011;822;53.670;8.676;2023-04-28T00:51:41;2.40;;;2.20;;
1649;SDS011;822;53.670;8.676;2023-04-28T00:54:08;3.20;;;2.27;;
1649;SDS011;822;53.670;8.676;2023-04-28T00:56:39;3.73;;;2.30;;
1649;SDS011;822;53.670;8.676;2023-04-28T00:59:06;2.60;;;2.00;;
1649;SDS011;822;53.670;8.676;2023-04-28T01:01:35;6.40;;;3.40;;
1649;SDS011;822;53.670;8.676;2023-04-28T01:04:02;3.20;;;2.13;;
1649;SDS011;822;53.670;8.676;2023-04-28T01:06:29;3.30;;;3.00;;
1649;SDS011;822;53.670;8.676;2023-04-28T01:08:58;3.70;;;2.50;;
1649;SDS011;822;53.670;8.676;2023-04-28T01:11:25;3.13;;;1.77;;
1649;SDS011;822;53.670;8.676;2023-04-28T01:13:52;2.07;;;1.87;;
1649;SDS011;822;53.670;8.676;2023-04-28T01:16:21;3.17;;;2.30;;
1649;SDS011;822;53.670;8.676;2023-04-28T01:18:51;3.30;;;2.30;;
1649;SDS011;822;53.670;8.676;2023-04-28T01:21:24;6.37;;;2.50;;
1649;SDS011;822;53.670;8.676;2023-04-28T01:23:54;6.03;;;2.37;;
1649;SDS011;822;53.670;8.676;2023-04-28T01:26:22;4.10;;;2.77;;
1649;SDS011;822;53.670;8.676;2023-04-28T01:28:49;2.57;;;1.97;;
1649;SDS011;822;53.670;8.676;2023-04-28T01:31:16;3.97;;;3.10;;
1649;SDS011;822;53.670;8.676;2023-04-28T01:33:44;2.83;;;1.97;;
1649;SDS011;822;53.670;8.676;2023-04-28T01:36:11;2.83;;;2.63;;
1649;SDS011;822;53.670;8.676;2023-04-28T01:38:38;5.30;;;2.93;;
1649;SDS011;822;53.670;8.676;2023-04-28T01:41:07;3.50;;;3.20;;
1649;SDS011;822;53.670;8.676;2023-04-28T01:43:34;3.10;;;2.70;;
1649;SDS011;822;53.670;8.676;2023-04-28T01:46:01;4.80;;;3.00;;
1649;SDS011;822;53.670;8.676;2023-04-28T01:48:28;5.70;;;2.70;;
1649;SDS011;822;53.670;8.676;2023-04-28T01:50:55;10.87;;;3.97;;
1649;SDS011;822;53.670;8.676;2023-04-28T01:53:22;3.30;;;2.97;;
1649;SDS011;822;53.670;8.676;2023-04-28T01:55:49;3.10;;;2.40;;
1649;SDS011;822;53.670;8.676;2023-04-28T01:58:18;3.17;;;2.87;;
1649;SDS011;822;53.670;8.676;2023-04-28T02:00:46;2.70;;;2.50;;
1649;SDS011;822;53.670;8.676;2023-04-28T02:03:13;3.70;;;2.70;;
1649;SDS011;822;53.670;8.676;2023-04-28T02:05:40;6.97;;;3.47;;
1649;SDS011;822;53.670;8.676;2023-04-28T02:08:07;3.40;;;3.10;;
1649;SDS011;822;53.670;8.676;2023-04-28T02:10:34;3.10;;;2.23;;
1649;SDS011;822;53.670;8.676;2023-04-28T02:13:01;4.07;;;2.53;;
1649;SDS011;822;53.670;8.676;2023-04-28T02:15:30;7.40;;;4.30;;
1649;SDS011;822;53.670;8.676;2023-04-28T02:17:57;5.77;;;3.33;;
1649;SDS011;822;53.670;8.676;2023-04-28T02:20:25;3.03;;;2.60;;
1649;SDS011;822;53.670;8.676;2023-04-28T02:22:52;4.13;;;3.63;;
1649;SDS011;822;53.670;8.676;2023-04-28T02:25:19;7.30;;;4.07;;
1649;SDS011;822;53.670;8.676;2023-04-28T02:27:46;4.80;;;3.50;;
1649;SDS011;822;53.670;8.676;2023-04-28T02:30:13;3.60;;;3.20;;
1649;SDS011;822;53.670;8.676;2023-04-28T02:32:45;5.80;;;2.90;;
1649;SDS011;822;53.670;8.676;2023-04-28T02:35:13;3.57;;;3.27;;
1649;SDS011;822;53.670;8.676;2023-04-28T02:37:40;4.23;;;3.00;;
1649;SDS011;822;53.670;8.676;2023-04-28T02:40:08;2.70;;;2.53;;
1649;SDS011;822;53.670;8.676;2023-04-28T02:42:35;5.30;;;3.90;;
1649;SDS011;822;53.670;8.676;2023-04-28T02:45:03;6.00;;;2.87;;
1649;SDS011;822;53.670;8.676;2023-04-28T02:47:31;4.30;;;2.90;;
1649;SDS011;822;53.670;8.676;2023-04-28T02:49:59;4.53;;;3.43;;
1649;SDS011;822;53.670;8.676;2023-04-28T02:52:26;4.03;;;3.63;;
1649;SDS011;822;53.670;8.676;2023-04-28T02:54:53;5.77;;;4.17;;
1649;SDS011;822;53.670;8.676;2023-04-28T02:57:21;4.93;;;4.03;;
1649;SDS011;822;53.670;8.676;2023-04-28T02:59:49;4.20;;;3.80;;
1649;SDS011;822;53.670;8.676;2023-04-28T03:02:16;4.70;;;2.70;;
1649;SDS011;822;53.670;8.676;2023-04-28T03:04:44;3.97;;;3.10;;
1649;SDS011;822;53.670;8.676;2023-04-28T03:07:13;3.87;;;3.40;;
1649;SDS011;822;53.670;8.676;2023-04-28T03:09:40;4.10;;;3.73;;
1649;SDS011;822;53.670;8.676;2023-04-28T03:12:07;4.00;;;3.57;;
1649;SDS011;822;53.670;8.676;2023-04-28T03:14:34;5.20;;;4.67;;
1649;SDS011;822;53.670;8.676;2023-04-28T03:17:05;4.60;;;3.33;;
1649;SDS011;822;53.670;8.676;2023-04-28T03:19:32;4.53;;;3.03;;
1649;SDS011;822;53.670;8.676;2023-04-28T03:21:59;6.40;;;4.50;;
1649;SDS011;822;53.670;8.676;2023-04-28T03:24:27;4.53;;;4.13;;
1649;SDS011;822;53.670;8.676;2023-04-28T03:26:54;5.10;;;3.57;;
1649;SDS011;822;53.670;8.676;2023-04-28T03:29:22;3.60;;;3.30;;
1649;SDS011;822;53.670;8.676;2023-04-28T03:31:49;3.17;;;2.70;;
1649;SDS011;822;53.670;8.676;2023-04-28T03:34:17;3.77;;;2.57;;
1649;SDS011;822;53.670;8.676;2023-04-28T03:36:44;7.33;;;3.47;;
1649;SDS011;822;53.670;8.676;2023-04-28T03:39:11;4.00;;;2.93;;
1649;SDS011;822;53.670;8.676;2023-04-28T03:41:39;3.87;;;3.47;;
1649;SDS011;822;53.670;8.676;2023-04-28T03:44:06;4.07;;;2.63;;
1649;SDS011;822;53.670;8.676;2023-04-28T03:46:36;2.90;;;2.30;;
1649;SDS011;822;53.670;8.676;2023-04-28T03:49:04;4.90;;;3.53;;
1649;SDS011;822;53.670;8.676;2023-04-28T03:51:32;3.60;;;3.30;;
1649;SDS011;822;53.670;8.676;2023-04-28T03:53:59;6.10;;;2.93;;
1649;SDS011;822;53.670;8.676;2023-04-28T03:56:26;4.40;;;3.40;;
1649;SDS011;822;53.670;8.676;2023-04-28T03:58:54;5.23;;;4.27;;
1649;SDS011;822;53.670;8.676;2023-04-28T04:01:21;3.10;;;2.80;;
1649;SDS011;822;53.670;8.676;2023-04-28T04:03:49;2.97;;;2.73;;
1649;SDS011;822;53.670;8.676;2023-04-28T04:06:16;6.73;;;3.40;;
1649;SDS011;822;53.670;8.676;2023-04-28T04:08:44;4.33;;;3.47;;
1649;SDS011;822;53.670;8.676;2023-04-28T04:11:11;4.53;;;4.13;;
1649;SDS011;822;53.670;8.676;2023-04-28T04:13:38;7.27;;;4.77;;
1649;SDS011;822;53.670;8.676;2023-04-28T04:16:07;3.70;;;3.40;;
1649;SDS011;822;53.670;8.676;2023-04-28T04:18:34;5.77;;;3.80;;
1649;SDS011;822;53.670;8.676;2023-04-28T04:21:01;8.17;;;4.17;;
1649;SDS011;822;53.670;8.676;2023-04-28T04:23:29;5.93;;;4.63;;
1649;SDS011;822;53.670;8.676;2023-04-28T04:25:56;5.63;;;3.77;;
1649;SDS011;822;53.670;8.676;2023-04-28T04:28:23;6.77;;;4.20;;
1649;SDS011;822;53.670;8.676;2023-04-28T04:30:50;4.63;;;3.17;;
1649;SDS011;822;53.670;8.676;2023-04-28T04:33:19;5.40;;;4.87;;
1649;SDS011;822;53.670;8.676;2023-04-28T04:35:46;5.40;;;2.70;;
1649;SDS011;822;53.670;8.676;2023-04-28T04:38:13;7.47;;;3.77;;
1649;SDS011;822;53.670;8.676;2023-04-28T04:40:40;6.30;;;4.47;;
1649;SDS011;822;53.670;8.676;2023-04-28T04:43:07;6.30;;;4.40;;
1649;SDS011;822;53.670;8.676;2023-04-28T04:45:34;4.53;;;4.10;;
1649;SDS011;822;53.670;8.676;2023-04-28T04:48:08;6.43;;;4.77;;
1649;SDS011;822;53.670;8.676;2023-04-28T04:50:36;7.00;;;5.23;;
1649;SDS011;822;53.670;8.676;2023-04-28T04:53:04;8.73;;;3.90;;
1649;SDS011;822;53.670;8.676;2023-04-28T04:55:31;3.70;;;3.37;;
1649;SDS011;822;53.670;8.676;2023-04-28T04:58:01;6.97;;;3.80;;
1649;SDS011;822;53.670;8.676;2023-04-28T05:00:28;9.73;;;4.47;;
1649;SDS011;822;53.670;8.676;2023-04-28T05:02:55;8.43;;;3.90;;
1649;SDS011;822;53.670;8.676;2023-04-28T05:05:22;7.17;;;3.07;;
1649;SDS011;822;53.670;8.676;2023-04-28T05:07:50;6.17;;;3.70;;
1649;SDS011;822;53.670;8.676;2023-04-28T05:10:18;5.33;;;4.37;;
1649;SDS011;822;53.670;8.676;2023-04-28T05:12:45;7.27;;;3.60;;
1649;SDS011;822;53.670;8.676;2023-04-28T05:15:12;10.03;;;5.87;;
1649;SDS011;822;53.670;8.676;2023-04-28T05:17:39;5.80;;;3.57;;
1649;SDS011;822;53.670;8.676;2023-04-28T05:20:07;5.23;;;3.53;;
1649;SDS011;822;53.670;8.676;2023-04-28T05:22:34;4.60;;;4.10;;
1649;SDS011;822;53.670;8.676;2023-04-28T05:25:03;4.97;;;3.90;;
1649;SDS011;822;53.670;8.676;2023-04-28T05:27:31;8.50;;;5.20;;
1649;SDS011;822;53.670;8.676;2023-04-28T05:29:58;6.73;;;5.07;;
1649;SDS011;822;53.670;8.676;2023-04-28T05:32:25;5.27;;;3.97;;
1649;SDS011;822;53.670;8.676;2023-04-28T05:34:52;11.97;;;5.73;;
1649;SDS011;822;53.670;8.676;2023-04-28T05:37:19;6.80;;;5.73;;
1649;SDS011;822;53.670;8.676;2023-04-28T05:39:46;8.73;;;5.40;;
1649;SDS011;822;53.670;8.676;2023-04-28T05:42:18;8.03;;;5.53;;
1649;SDS011;822;53.670;8.676;2023-04-28T05:44:45;8.07;;;5.13;;
1649;SDS011;822;53.670;8.676;2023-04-28T05:47:12;6.97;;;4.50;;
1649;SDS011;822;53.670;8.676;2023-04-28T05:49:39;7.40;;;6.70;;
1649;SDS011;822;53.670;8.676;2023-04-28T05:52:06;10.10;;;5.57;;
1649;SDS011;822;53.670;8.676;2023-04-28T05:54:36;6.60;;;4.90;;
1649;SDS011;822;53.670;8.676;2023-04-28T05:57:03;5.57;;;4.30;;
1649;SDS011;822;53.670;8.676;2023-04-28T05:59:32;5.20;;;4.70;;
1649;SDS011;822;53.670;8.676;2023-04-28T06:01:59;7.00;;;5.17;;
1649;SDS011;822;53.670;8.676;2023-04-28T06:04:27;8.70;;;6.07;;
1649;SDS011;822;53.670;8.676;2023-04-28T06:06:54;8.17;;;4.80;;
1649;SDS011;822;53.670;8.676;2023-04-28T06:09:21;4.90;;;3.40;;
1649;SDS011;822;53.670;8.676;2023-04-28T06:11:48;6.73;;;4.90;;
1649;SDS011;822;53.670;8.676;2023-04-28T06:14:15;4.87;;;4.30;;
1649;SDS011;822;53.670;8.676;2023-04-28T06:16:44;5.40;;;3.83;;
1649;SDS011;822;53.670;8.676;2023-04-28T06:19:11;7.03;;;5.00;;
1649;SDS011;822;53.670;8.676;2023-04-28T06:21:39;5.87;;;5.00;;
1649;SDS011;822;53.670;8.676;2023-04-28T06:24:06;5.57;;;4.97;;
1649;SDS011;822;53.670;8.676;2023-04-28T06:26:33;6.47;;;4.00;;
1649;SDS011;822;53.670;8.676;2023-04-28T06:29:00;5.10;;;4.03;;
1649;SDS011;822;53.670;8.676;2023-04-28T06:31:28;6.13;;;4.67;;
1649;SDS011;822;53.670;8.676;2023-04-28T06:33:56;8.60;;;4.87;;
1649;SDS011;822;53.670;8.676;2023-04-28T06:36:23;5.70;;;4.50;;
1649;SDS011;822;53.670;8.676;2023-04-28T06:38:50;4.83;;;4.30;;
1649;SDS011;822;53.670;8.676;2023-04-28T06:41:18;5.40;;;4.30;;
1649;SDS011;822;53.670;8.676;2023-04-28T06:43:45;10.00;;;4.87;;
1649;SDS011;822;53.670;8.676;2023-04-28T06:46:12;7.43;;;5.13;;
1649;SDS011;822;53.670;8.676;2023-04-28T06:48:39;5.13;;;3.97;;
1649;SDS011;822;53.670;8.676;2023-04-28T06:51:08;4.03;;;3.57;;
1649;SDS011;822;53.670;8.676;2023-04-28T06:53:35;6.17;;;4.20;;
1649;SDS011;822;53.670;8.676;2023-04-28T06:56:02;5.80;;;5.10;;
1649;SDS011;822;53.670;8.676;2023-04-28T06:58:30;5.47;;;3.80;;
1649;SDS011;822;53.670;8.676;2023-04-28T07:00:57;6.40;;;3.50;;
1649;SDS011;822;53.670;8.676;2023-04-28T07:03:25;5.43;;;4.23;;
1649;SDS011;822;53.670;8.676;2023-04-28T07:05:52;8.00;;;3.80;;
1649;SDS011;822;53.670;8.676;2023-04-28T07:08:21;5.40;;;3.63;;
1649;SDS011;822;53.670;8.676;2023-04-28T07:10:48;4.93;;;3.77;;
1649;SDS011;822;53.670;8.676;2023-04-28T07:13:15;3.50;;;3.20;;
1649;SDS011;822;53.670;8.676;2023-04-28T07:15:42;4.07;;;3.67;;
1649;SDS011;822;53.670;8.676;2023-04-28T07:18:09;5.43;;;3.60;;
1649;SDS011;822;53.670;8.676;2023-04-28T07:20:36;5.30;;;3.30;;
1649;SDS011;822;53.670;8.676;2023-04-28T07:23:03;4.10;;;3.60;;
1649;SDS011;822;53.670;8.676;2023-04-28T07:25:32;4.80;;;3.60;;
1649;SDS011;822;53.670;8.676;2023-04-28T07:28:01;3.90;;;3.50;;
1649;SDS011;822;53.670;8.676;2023-04-28T07:30:29;4.20;;;3.70;;
1649;SDS011;822;53.670;8.676;2023-04-28T07:32:56;3.10;;;2.87;;
1649;SDS011;822;53.670;8.676;2023-04-28T07:35:23;4.00;;;3.47;;
1649;SDS011;822;53.670;8.676;2023-04-28T07:37:54;3.57;;;3.20;;
1649;SDS011;822;53.670;8.676;2023-04-28T07:40:22;3.50;;;2.37;;
1649;SDS011;822;53.670;8.676;2023-04-28T07:42:50;3.43;;;2.60;;
1649;SDS011;822;53.670;8.676;2023-04-28T07:45:18;5.87;;;3.53;;
1649;SDS011;822;53.670;8.676;2023-04-28T07:47:45;4.97;;;3.30;;
1649;SDS011;822;53.670;8.676;2023-04-28T07:50:12;4.33;;;2.90;;
1649;SDS011;822;53.670;8.676;2023-04-28T07:52:40;3.17;;;2.87;;
1649;SDS011;822;53.670;8.676;2023-04-28T07:55:07;4.60;;;3.20;;
1649;SDS011;822;53.670;8.676;2023-04-28T07:57:34;2.20;;;2.00;;
1649;SDS011;822;53.670;8.676;2023-04-28T08:00:04;3.27;;;2.97;;
1649;SDS011;822;53.670;8.676;2023-04-28T08:02:32;4.30;;;3.70;;
1649;SDS011;822;53.670;8.676;2023-04-28T08:04:59;3.60;;;2.40;;
1649;SDS011;822;53.670;8.676;2023-04-28T08:07:26;3.53;;;3.20;;
1649;SDS011;822;53.670;8.676;2023-04-28T08:09:54;3.57;;;2.93;;
1649;SDS011;822;53.670;8.676;2023-04-28T08:12:21;2.93;;;2.73;;
1649;SDS011;822;53.670;8.676;2023-04-28T08:14:48;3.10;;;2.80;;
1649;SDS011;822;53.670;8.676;2023-04-28T08:17:17;3.00;;;2.80;;
1649;SDS011;822;53.670;8.676;2023-04-28T08:19:44;3.50;;;2.80;;
1649;SDS011;822;53.670;8.676;2023-04-28T08:22:11;3.07;;;2.83;;
1649;SDS011;822;53.670;8.676;2023-04-28T08:24:38;3.03;;;2.73;;
1649;SDS011;822;53.670;8.676;2023-04-28T08:27:06;3.40;;;3.00;;
1649;SDS011;822;53.670;8.676;2023-04-28T08:29:36;2.97;;;2.77;;
1649;SDS011;822;53.670;8.676;2023-04-28T08:32:04;2.60;;;2.27;;
1649;SDS011;822;53.670;8.676;2023-04-28T08:34:32;3.40;;;3.10;;
1649;SDS011;822;53.670;8.676;2023-04-28T08:36:59;4.40;;;3.13;;
1649;SDS011;822;53.670;8.676;2023-04-28T08:39:27;3.83;;;3.13;;
1649;SDS011;822;53.670;8.676;2023-04-28T08:41:55;3.27;;;2.97;;
1649;SDS011;822;53.670;8.676;2023-04-28T08:44:23;3.60;;;3.30;;
1649;SDS011;822;53.670;8.676;2023-04-28T08:46:51;3.23;;;3.00;;
1649;SDS011;822;53.670;8.676;2023-04-28T08:49:22;3.20;;;3.00;;
1649;SDS011;822;53.670;8.676;2023-04-28T08:52:01;3.97;;;3.03;;
1649;SDS011;822;53.670;8.676;2023-04-28T08:54:34;4.30;;;3.07;;
1649;SDS011;822;53.670;8.676;2023-04-28T08:57:03;3.13;;;2.83;;
1649;SDS011;822;53.670;8.676;2023-04-28T08:59:37;5.73;;;3.00;;
1649;SDS011;822;53.670;8.676;2023-04-28T09:02:06;3.17;;;2.80;;
1649;SDS011;822;53.670;8.676;2023-04-28T09:04:34;2.60;;;2.40;;
1649;SDS011;822;53.670;8.676;2023-04-28T09:07:02;2.90;;;2.60;;
1649;SDS011;822;53.670;8.676;2023-04-28T09:09:35;2.73;;;2.40;;
1649;SDS011;822;53.670;8.676;2023-04-28T09:12:03;3.80;;;2.80;;
1649;SDS011;822;53.670;8.676;2023-04-28T09:14:30;3.33;;;3.03;;
1649;SDS011;822;53.670;8.676;2023-04-28T09:16:59;3.80;;;2.77;;
1649;SDS011;822;53.670;8.676;2023-04-28T09:19:31;2.80;;;2.53;;
1649;SDS011;822;53.670;8.676;2023-04-28T09:22:00;3.20;;;2.90;;
1649;SDS011;822;53.670;8.676;2023-04-28T09:24:31;2.80;;;2.50;;
1649;SDS011;822;53.670;8.676;2023-04-28T09:26:59;2.93;;;2.67;;
1649;SDS011;822;53.670;8.676;2023-04-28T09:29:27;2.70;;;2.50;;
1649;SDS011;822;53.670;8.676;2023-04-28T09:32:00;3.07;;;2.87;;
1649;SDS011;822;53.670;8.676;2023-04-28T09:34:42;2.47;;;2.27;;
1649;SDS011;822;53.670;8.676;2023-04-28T09:37:15;2.80;;;2.60;;
1649;SDS011;822;53.670;8.676;2023-04-28T09:39:48;3.37;;;3.07;;
1649;SDS011;822;53.670;8.676;2023-04-28T09:42:31;2.97;;;2.70;;
1649;SDS011;822;53.670;8.676;2023-04-28T09:44:59;3.20;;;2.80;;
1649;SDS011;822;53.670;8.676;2023-04-28T09:47:27;3.17;;;2.93;;
1649;SDS011;822;53.670;8.676;2023-04-28T09:49:58;2.77;;;2.57;;
1649;SDS011;822;53.670;8.676;2023-04-28T09:52:28;3.70;;;3.40;;
1649;SDS011;822;53.670;8.676;2023-04-28T09:54:58;3.50;;;2.60;;
1649;SDS011;822;53.670;8.676;2023-04-28T09:57:27;3.37;;;3.07;;
1649;SDS011;822;53.670;8.676;2023-04-28T09:59:57;3.00;;;2.80;;
1649;SDS011;822;53.670;8.676;2023-04-28T10:02:25;3.60;;;3.07;;
1649;SDS011;822;53.670;8.676;2023-04-28T10:04:52;3.70;;;3.40;;
1649;SDS011;822;53.670;8.676;2023-04-28T10:07:20;3.07;;;2.77;;
1649;SDS011;822;53.670;8.676;2023-04-28T10:09:49;3.47;;;3.17;;
1649;SDS011;822;53.670;8.676;2023-04-28T10:12:16;3.57;;;3.27;;
1649;SDS011;822;53.670;8.676;2023-04-28T10:14:44;3.70;;;3.40;;
1649;SDS011;822;53.670;8.676;2023-04-28T10:17:14;4.23;;;3.20;;
1649;SDS011;822;53.670;8.676;2023-04-28T10:19:43;3.60;;;3.30;;
1649;SDS011;822;53.670;8.676;2023-04-28T10:22:28;2.33;;;2.13;;
1649;SDS011;822;53.670;8.676;2023-04-28T10:25:11;3.50;;;3.20;;
1649;SDS011;822;53.670;8.676;2023-04-28T10:27:50;2.80;;;2.60;;
1649;SDS011;822;53.670;8.676;2023-04-28T10:30:19;2.83;;;2.60;;
1649;SDS011;822;53.670;8.676;2023-04-28T10:32:47;4.17;;;3.40;;
1649;SDS011;822;53.670;8.676;2023-04-28T10:35:42;2.97;;;2.77;;
1649;SDS011;822;53.670;8.676;2023-04-28T10:38:11;4.93;;;2.57;;
1649;SDS011;822;53.670;8.676;2023-04-28T10:40:41;2.60;;;2.40;;
1649;SDS011;822;53.670;8.676;2023-04-28T10:43:10;3.23;;;2.93;;
1649;SDS011;822;53.670;8.676;2023-04-28T10:51:33;2.70;;;2.50;;
1649;SDS011;822;53.670;8.676;2023-04-28T10:59:45;3.57;;;3.27;;
1649;SDS011;822;53.670;8.676;2023-04-28T11:05:15;3.60;;;3.00;;
1649;SDS011;822;53.670;8.676;2023-04-28T11:11:14;3.93;;;2.93;;
1649;SDS011;822;53.670;8.676;2023-04-28T11:13:44;3.40;;;3.20;;
1649;SDS011;822;53.670;8.676;2023-04-28T11:16:13;3.20;;;3.00;;
1649;SDS011;822;53.670;8.676;2023-04-28T11:18:49;3.47;;;3.10;;
1649;SDS011;822;53.670;8.676;2023-04-28T11:21:32;3.63;;;3.33;;
1649;SDS011;822;53.670;8.676;2023-04-28T11:24:00;4.77;;;3.50;;
1649;SDS011;822;53.670;8.676;2023-04-28T11:26:36;3.73;;;3.40;;
1649;SDS011;822;53.670;8.676;2023-04-28T11:29:05;3.60;;;3.20;;
1649;SDS011;822;53.670;8.676;2023-04-28T11:31:32;3.10;;;2.73;;
1649;SDS011;822;53.670;8.676;2023-04-28T11:34:03;3.23;;;2.93;;
1649;SDS011;822;53.670;8.676;2023-04-28T11:36:32;3.10;;;2.90;;
1649;SDS011;822;53.670;8.676;2023-04-28T11:39:01;3.80;;;3.43;;
1649;SDS011;822;53.670;8.676;2023-04-28T11:41:32;3.30;;;3.00;;
1649;SDS011;822;53.670;8.676;2023-04-28T11:44:00;2.70;;;2.50;;
1649;SDS011;822;53.670;8.676;2023-04-28T11:46:36;3.10;;;2.80;;
1649;SDS011;822;53.670;8.676;2023-04-28T11:49:11;2.70;;;2.50;;
1649;SDS011;822;53.670;8.676;2023-04-28T11:51:39;3.40;;;3.10;;
1649;SDS011;822;53.670;8.676;2023-04-28T11:54:13;3.53;;;3.23;;
1649;SDS011;822;53.670;8.676;2023-04-28T11:56:45;3.37;;;3.07;;
1649;SDS011;822;53.670;8.676;2023-04-28T11:59:13;3.40;;;3.10;;
1649;SDS011;822;53.670;8.676;2023-04-28T12:01:44;4.00;;;3.57;;
1649;SDS011;822;53.670;8.676;2023-04-28T12:04:13;4.10;;;3.70;;
1649;SDS011;822;53.670;8.676;2023-04-28T12:06:57;5.77;;;3.30;;
1649;SDS011;822;53.670;8.676;2023-04-28T12:09:28;3.10;;;2.90;;
1649;SDS011;822;53.670;8.676;2023-04-28T12:11:56;3.67;;;2.80;;
1649;SDS011;822;53.670;8.676;2023-04-28T12:14:25;3.70;;;3.30;;
1649;SDS011;822;53.670;8.676;2023-04-28T12:16:56;2.60;;;2.40;;
1649;SDS011;822;53.670;8.676;2023-04-28T12:19:23;4.13;;;3.80;;
1649;SDS011;822;53.670;8.676;2023-04-28T12:22:00;3.33;;;3.13;;
1649;SDS011;822;53.670;8.676;2023-04-28T12:24:29;3.27;;;2.97;;
1649;SDS011;822;53.670;8.676;2023-04-28T12:29:44;3.50;;;3.20;;
1649;SDS011;822;53.670;8.676;2023-04-28T12:32:12;4.00;;;3.60;;
1649;SDS011;822;53.670;8.676;2023-04-28T12:34:40;3.13;;;2.87;;
1649;SDS011;822;53.670;8.676;2023-04-28T12:37:07;3.47;;;3.20;;
1649;SDS011;822;53.670;8.676;2023-04-28T12:39:37;3.20;;;3.00;;
1649;SDS011;822;53.670;8.676;2023-04-28T12:42:05;4.10;;;2.90;;
1649;SDS011;822;53.670;8.676;2023-04-28T12:44:33;3.37;;;3.07;;
1649;SDS011;822;53.670;8.676;2023-04-28T12:47:03;3.77;;;3.37;;
1649;SDS011;822;53.670;8.676;2023-04-28T12:49:32;4.60;;;3.40;;
1649;SDS011;822;53.670;8.676;2023-04-28T12:51:59;3.50;;;3.20;;
1649;SDS011;822;53.670;8.676;2023-04-28T12:54:29;3.63;;;3.10;;
1649;SDS011;822;53.670;8.676;2023-04-28T12:56:56;3.80;;;3.50;;
1649;SDS011;822;53.670;8.676;2023-04-28T12:59:24;3.07;;;2.80;;
1649;SDS011;822;53.670;8.676;2023-04-28T13:01:51;4.70;;;4.20;;
1649;SDS011;822;53.670;8.676;2023-04-28T13:04:19;4.07;;;3.77;;
1649;SDS011;822;53.670;8.676;2023-04-28T13:06:47;3.50;;;3.20;;
1649;SDS011;822;53.670;8.676;2023-04-28T13:09:14;3.87;;;3.57;;
1649;SDS011;822;53.670;8.676;2023-04-28T13:11:42;5.00;;;3.47;;
1649;SDS011;822;53.670;8.676;2023-04-28T13:14:09;4.33;;;3.93;;
1649;SDS011;822;53.670;8.676;2023-04-28T13:16:36;4.40;;;3.80;;
1649;SDS011;822;53.670;8.676;2023-04-28T13:19:06;4.07;;;3.67;;
1649;SDS011;822;53.670;8.676;2023-04-28T13:21:36;3.07;;;2.80;;
1649;SDS011;822;53.670;8.676;2023-04-28T13:24:03;4.03;;;3.33;;
1649;SDS011;822;53.670;8.676;2023-04-28T13:26:31;4.03;;;3.57;;
1649;SDS011;822;53.670;8.676;2023-04-28T13:28:58;4.40;;;3.57;;
1649;SDS011;822;53.670;8.676;2023-04-28T13:31:26;3.77;;;3.30;;
1649;SDS011;822;53.670;8.676;2023-04-28T13:33:54;4.53;;;3.00;;
1649;SDS011;822;53.670;8.676;2023-04-28T13:36:21;4.40;;;2.83;;
1649;SDS011;822;53.670;8.676;2023-04-28T13:38:50;7.47;;;2.97;;
1649;SDS011;822;53.670;8.676;2023-04-28T13:41:17;3.23;;;2.93;;
1649;SDS011;822;53.670;8.676;2023-04-28T13:43:44;3.70;;;3.40;;
1649;SDS011;822;53.670;8.676;2023-04-28T13:46:11;3.10;;;2.77;;
1649;SDS011;822;53.670;8.676;2023-04-28T13:48:39;3.80;;;3.50;;
1649;SDS011;822;53.670;8.676;2023-04-28T13:51:06;3.43;;;3.23;;
1649;SDS011;822;53.670;8.676;2023-04-28T13:53:34;3.90;;;3.57;;
1649;SDS011;822;53.670;8.676;2023-04-28T13:56:03;3.50;;;3.20;;
1649;SDS011;822;53.670;8.676;2023-04-28T13:58:34;2.83;;;2.50;;
1649;SDS011;822;53.670;8.676;2023-04-28T14:01:01;3.53;;;3.23;;
1649;SDS011;822;53.670;8.676;2023-04-28T14:03:29;3.40;;;3.10;;
1649;SDS011;822;53.670;8.676;2023-04-28T14:05:56;7.43;;;3.07;;
1649;SDS011;822;53.670;8.676;2023-04-28T14:08:24;3.30;;;3.00;;
1649;SDS011;822;53.670;8.676;2023-04-28T14:10:51;3.23;;;2.93;;
1649;SDS011;822;53.670;8.676;2023-04-28T14:13:20;2.80;;;2.60;;
1649;SDS011;822;53.670;8.676;2023-04-28T14:15:49;3.53;;;2.77;;
1649;SDS011;822;53.670;8.676;2023-04-28T14:18:18;3.60;;;3.30;;
1649;SDS011;822;53.670;8.676;2023-04-28T14:20:45;3.47;;;2.97;;
1649;SDS011;822;53.670;8.676;2023-04-28T14:23:13;3.27;;;2.97;;
1649;SDS011;822;53.670;8.676;2023-04-28T14:25:40;3.00;;;2.80;;
1649;SDS011;822;53.670;8.676;2023-04-28T14:28:07;3.20;;;2.90;;
1649;SDS011;822;53.670;8.676;2023-04-28T14:30:36;3.30;;;2.80;;
1649;SDS011;822;53.670;8.676;2023-04-28T14:33:04;3.53;;;2.83;;
1649;SDS011;822;53.670;8.676;2023-04-28T14:35:32;3.60;;;3.30;;
1649;SDS011;822;53.670;8.676;2023-04-28T14:37:59;4.50;;;3.67;;
1649;SDS011;822;53.670;8.676;2023-04-28T14:40:27;3.87;;;3.57;;
1649;SDS011;822;53.670;8.676;2023-04-28T14:42:54;4.50;;;4.10;;
1649;SDS011;822;53.670;8.676;2023-04-28T14:45:21;3.67;;;3.10;;
1649;SDS011;822;53.670;8.676;2023-04-28T14:47:50;3.90;;;3.30;;
1649;SDS011;822;53.670;8.676;2023-04-28T14:50:17;4.73;;;3.97;;
1649;SDS011;822;53.670;8.676;2023-04-28T14:52:44;3.63;;;2.97;;
1649;SDS011;822;53.670;8.676;2023-04-28T14:55:11;2.70;;;2.50;;
1649;SDS011;822;53.670;8.676;2023-04-28T14:57:38;3.97;;;3.60;;
1649;SDS011;822;53.670;8.676;2023-04-28T15:00:06;3.30;;;2.80;;
1649;SDS011;822;53.670;8.676;2023-04-28T15:02:34;3.03;;;2.73;;
1649;SDS011;822;53.670;8.676;2023-04-28T15:05:03;4.40;;;3.37;;
1649;SDS011;822;53.670;8.676;2023-04-28T15:07:30;4.00;;;3.70;;
1649;SDS011;822;53.670;8.676;2023-04-28T15:09:57;3.13;;;2.87;;
1649;SDS011;822;53.670;8.676;2023-04-28T15:12:28;3.87;;;3.03;;
1649;SDS011;822;53.670;8.676;2023-04-28T15:14:56;2.97;;;2.77;;
1649;SDS011;822;53.670;8.676;2023-04-28T15:17:23;3.10;;;2.90;;
1649;SDS011;822;53.670;8.676;2023-04-28T15:19:50;3.87;;;3.57;;
1649;SDS011;822;53.670;8.676;2023-04-28T15:22:18;3.90;;;3.60;;
1649;SDS011;822;53.670;8.676;2023-04-28T15:24:46;4.33;;;3.73;;
1649;SDS011;822;53.670;8.676;2023-04-28T15:27:13;4.40;;;2.93;;
1649;SDS011;822;53.670;8.676;2023-04-28T15:29:40;4.20;;;3.80;;
1649;SDS011;822;53.670;8.676;2023-04-28T15:32:08;2.83;;;2.63;;
1649;SDS011;822;53.670;8.676;2023-04-28T15:34:35;3.80;;;3.40;;
1649;SDS011;822;53.670;8.676;2023-04-28T15:37:04;3.83;;;3.53;;
1649;SDS011;822;53.670;8.676;2023-04-28T15:39:55;3.17;;;2.90;;
1649;SDS011;822;53.670;8.676;2023-04-28T15:42:22;4.57;;;3.00;;
1649;SDS011;822;53.670;8.676;2023-04-28T15:44:50;3.27;;;3.00;;
1649;SDS011;822;53.670;8.676;2023-04-28T15:47:19;4.10;;;3.57;;
1649;SDS011;822;53.670;8.676;2023-04-28T15:49:46;4.40;;;3.70;;
1649;SDS011;822;53.670;8.676;2023-04-28T15:52:13;4.10;;;3.67;;
1649;SDS011;822;53.670;8.676;2023-04-28T15:54:40;4.00;;;3.60;;
1649;SDS011;822;53.670;8.676;2023-04-28T15:57:09;5.90;;;4.70;;
1649;SDS011;822;53.670;8.676;2023-04-28T15:59:37;3.33;;;3.07;;